Station Nord

KL  EN  DA
ASIAQ
Weather Now GREENLAND SURVEY
Updated [WGT/WGST] Temperature [°C] Wind [m/s] Air pressure [hPa] Relative humidity [%] Precipitation [mm]
Present Wind chill Speed Max
20.04 16:00-22,3-29,62,6 ⇗3,1101075n/a
20.04 15:00-22,5-28,92,1 ⇗2,6101072n/a
20.04 14:00-22,2-28,52,1 ⇗2,6101071n/a
20.04 13:00-20,40,01,0 ⇖1,5101065n/a
20.04 12:00n/an/a2,6 ⇙3,1n/an/an/a
20.04 11:00-20,9-27,92,6 ⇙3,1101069n/a
20.04 10:00-18,4-22,71,5 ⇖2,1101070n/a
20.04 09:00-19,90,00,5 ⇓1,5101074n/a
20.04 08:00-19,6-24,11,5 ⇗2,1101077n/a
20.04 07:00-21,3-28,42,6 ⇗3,1101076n/a
20.04 06:00-22,1-31,54,1 ⇗4,6101077n/a
20.04 05:00-23,8-34,85,1 ⇒5,7101076n/a
20.04 04:00-24,2-35,95,7 ⇗5,7101077n/a
20.04 03:00-22,2-32,24,6 ⇗5,7101083n/a
20.04 02:00-19,1-25,82,6 ⇒3,1101083n/a
20.04 01:00-17,10,01,0 ⇘1,5100984n/a
20.04 00:00-16,2-22,42,6 ⇗2,6100983n/a
19.04 23:00-15,50,00,5 ⇘1,0100883n/a
19.04 22:00-17,1-21,31,5 ⇗2,1100883n/a
19.04 21:00-16,0-20,01,5 ⇒1,5100878n/a
19.04 20:00-15,8-19,81,5 ⇒2,1100875n/a
19.04 19:00-14,8-20,72,6 ⇑3,1100762n/a
19.04 18:00-14,9-18,71,5 ⇖2,1100753n/a
19.04 17:00-18,5-25,12,6 ⇐3,1100774n/a
19.04 16:00-16,20,00,5 ⇐1,0100757n/a
Position: (81.603333333,-16.66333333)

[Back]